Tiempo atmosférico en la estación meteorológica de Bardenas Reales, Base Aérea, Navarra (295 m.)

Fecha
DESCASC
Temp. máxima en grados centígrados (hora)
DESCASC
Temp. mínima en grados centígrados (hora)
DESCASC
Temp. media en grados centígrados
DESCASC
Racha de viento máxima en m/sg (hora)
DESCASC
Velocidad máxima media en intervalos de 10 minutos(hora)
DESCASC
Precipitaciones diarias en mm
DESCASC
Precipitaciones de 00:00 a 06:00 en mm
DESCASC
Precipitaciones de 06:00 a 12:00 en mm
DESCASC
Precipitaciones de 12:00 a 18:00 en mm
DESCASC
Precipitaciones de 18:00 a 24:00 en mm
DESCASC
17-09-2017 22.2 (17:30) 5.8 (08:10) 14 8.33 (19:10) 5.83 (19:20) 0 0 0 0 0
16-09-2017 19.7 (16:00) 7.4 (08:00) 13.6 15.28 (16:50) 11.11 (17:20) 0 0 0 0 0
15-09-2017 20.2 (17:00) 11.7 (23:50) 16 14.72 (17:40) 10.83 (17:30) 0 0 0 0 0
14-09-2017 21.3 (10:50) 13.8 (00:00) 17.5 16.39 (14:40) 12.78 (14:40) 0 0 0 0 0
13-09-2017 30.3 (18:10) 11.7 (00:00) 21 8.06 (16:40) 5.56 (22:30) 0 0 0 0 0
12-09-2017 24.4 (18:00) 14.7 (00:00) 19.5 10.83 (02:20) 7.5 (02:20) 0 0 0 0 0
11-09-2017 24.8 (15:30) 13.5 (00:00) 19.1 14.44 (13:40) 11.11 (13:50) 0 0 0 0 0
10-09-2017 21.8 (17:50) 12.8 (00:00) 17.3 16.39 (14:00) 11.67 (14:00) 0 0 0 0 0
09-09-2017 20.9 (17:00) 14.9 (00:00) 17.9 16.11 (17:50) 10.28 (19:00) 0 0 0 0 0
08-09-2017 28.2 (18:20) 10.7 (00:00) 19.5 7.78 (01:00) 5.56 (00:10) 0 0 0 0 0
07-09-2017 23.9 (16:00) 14.1 (00:00) 19 17.22 (01:10) 12.5 (01:00) 0 0 0 0 0
06-09-2017 26.1 (15:30) 17.2 (00:00) 21.7 18.61 (22:50) 13.06 (20:30) 0 0 0 0 0
05-09-2017 31.7 (17:40) 15.4 (00:00) 23.6 10.56 (20:50) 7.5 (20:30) 0 0 0 0 0
04-09-2017 29.3 (16:40) 15.8 (00:00) 22.5 8.33 (16:00) 5.83 (18:30) 0.2 0.2 0 0 0
03-09-2017 28.2 (17:20) 12.6 (00:00) 20.4 6.11 (16:50) 3.89 (17:30) 0 0 0 0 0
02-09-2017 23.4 (18:10) 12.3 (00:00) 17.8 13.06 (15:30) 8.61 (15:10) 0 0 0 0 0
01-09-2017 23.5 (15:10) 12.9 (00:00) 18.2 15 (19:10) 11.11 (19:10) 0 0 0 0 0
31-08-2017 23.6 (16:30) 15.1 (00:00) 19.4 12.78 (11:20) 8.61 (11:00) 1.4 0.4 0.6 0.4 0
30-08-2017 27.1 (16:20) 16.3 (00:00) 21.7 8.06 (10:10) 6.11 (10:50) 2.6 0 0.2 0 2.4
29-08-2017 27.1 (15:40) 15.3 (00:00) 21.2 12.78 (18:50) 8.33 (20:30) 5.6 0.6 2 0.2 2.8
28-08-2017 28.5 (15:00) 16.3 (00:00) 22.4 11.94 (19:20) 8.33 (19:30) 5.2 0 0 1.2 4
27-08-2017 29.5 (14:20) 18.7 (00:00) 24.1 10.28 (15:40) 6.11 (15:20) 4.8 0.2 0 4.4 0.2
26-08-2017 34.7 (18:00) 20.6 (00:00) 27.7 15.56 (20:30) 11.11 (20:30) 3.8 0 0 0 3.8
25-08-2017 33.9 (16:30) 17.5 (00:00) 25.7 15.56 (21:20) 11.39 (22:30) 0 0 0 0 0
24-08-2017 32.9 (18:20) 18.2 (00:00) 25.6 19.44 (00:50) 11.67 (00:50) 4 4 0 0 0
23-08-2017 34.4 (17:50) 19.5 (00:00) 27 13.61 (23:50) 8.89 (23:20) 10.8 0 0 0 10.8
22-08-2017 37.4 (17:50) 21 (00:00) 29.2 10.28 (23:30) 7.22 (23:30) 0 0 0 0 0

Gráficas

Temp. máximas Temp. mínimas Temp. medias Precipitaciones Rachas de viento máximas Velocidades máximas media en intervalos de 10 minutos

Datos horarios

Fecha y hora oficial Temperatura (ºC) Velocidad del viento (km/h) Dirección del viento Racha (km/h) Dirección de racha Precipitación (mm) Presión (hPa) Tendencia (hPa) Humedad (%)
2017-09-20 23:00:00 15.7 17 Este 22 Este 0 982.5 0.6 37
2017-09-20 22:00:00 17.2 0 Calma 9 Sudeste 0 982.4 0.4 32
2017-09-20 21:00:00 19.7 6 Sudeste 13 Sur 0 982 -0.1 27
2017-09-20 20:00:00 22.8 9 Sudeste 15 Sudeste 0 981.9 -0.7 20
2017-09-20 19:00:00 26 6 Sudeste 16 Sudeste 0 982 -1.4 13
2017-09-20 18:00:00 26.6 5 Norte 11 Nordeste 0 982.1 -1.9 12
2017-09-20 17:00:00 26.3 5 Nordeste 13 Noroeste 0 982.6 -2.3 11
2017-09-20 16:00:00 26 3 Sudoeste 11 Noroeste 0 983.4 -2.2 11
2017-09-20 15:00:00 24.7 4 Oeste 15 Oeste 0 984 -2.3 12
2017-09-20 14:00:00 22.5 5 Oeste 14 Sudoeste 0 984.9 -1.7 21
2017-09-20 13:00:00 19.5 7 Sudoeste 15 Oeste 0 985.6 -1.2 33
2017-09-20 12:00:00 17.2 6 Oeste 12 Noroeste 0 986.3 -0.6 40
2017-09-20 11:00:00 14.4 7 Oeste 14 Oeste 0 986.6 -0.6 53
2017-09-20 10:00:00 11.7 3 Sudoeste 8 Sudoeste 0 986.8 -0.2 71
2017-09-20 09:00:00 8 5 Sudoeste 8 Oeste 0 986.9 -0.1 85
2017-09-20 08:00:00 7 3 Noroeste 11 Sudoeste 0 987.2 -0.2 90
2017-09-20 07:00:00 8.2 8 Sudoeste 12 Noroeste 0 987 -0.7 87
2017-09-20 06:00:00 8.6 9 Noroeste 15 Noroeste 0 987 -0.7 85
2017-09-20 05:00:00 9.3 9 Oeste 15 Oeste 0 987.4 -0.3 83
2017-09-20 04:00:00 10.7 10 Oeste 17 Oeste 0 987.7 -0.5 75
2017-09-20 03:00:00 11.6 6 Oeste 31 Noroeste 0 987.7 -0.6 71
2017-09-20 02:00:00 12.1 22 Noroeste 30 Noroeste 0 987.7 -0.3 70
2017-09-20 01:00:00 12.2 17 Oeste 23 Oeste 0 988.2 0.1 69
2017-09-20 00:00:00 12.4 15 Oeste 29 Noroeste 0 988.3 0.5 68
2017-09-19 23:00:00 14.3 22 Noroeste 32 Norte 0 988 0.6 54
2017-09-19 22:00:00 15.2 23 Norte 37 Norte 0 988.1 1 50
2017-09-19 21:00:00 16.1 17 Norte 32 Norte 0 987.8 0.7 53
2017-09-19 20:00:00 17.9 24 Noroeste 41 Noroeste 0 987.4 0.1 43
2017-09-19 19:00:00 19.6 26 Noroeste 45 Noroeste 0 987.1 -0.3 36
2017-09-19 18:00:00 20.4 29 Noroeste 45 Noroeste 0 987.1 -0.5 36
2017-09-19 17:00:00 20.8 32 Noroeste 46 Noroeste 0 987.3 -1.1 35
2017-09-19 16:00:00 20.9 33 Noroeste 52 Noroeste 0 987.4 -1.5 36
2017-09-19 15:00:00 20.3 40 Noroeste 54 Noroeste 0 987.6 -1.4 33
2017-09-19 14:00:00 20.2 32 Noroeste 51 Noroeste 0 988.4 -0.7 38
2017-09-19 13:00:00 18.7 29 Noroeste 46 Noroeste 0 988.9 -0.1 46
2017-09-19 12:00:00 17.4 34 Noroeste 45 Noroeste 0 989 0.4 51
2017-09-19 11:00:00 16.2 29 Noroeste 40 Noroeste 0 989.1 0.8 60
2017-09-19 10:00:00 14.7 23 Noroeste 33 Oeste 0 989 1.1 68
2017-09-19 09:00:00 12.7 18 Oeste 23 Oeste 0 988.6 0.8 79
2017-09-19 08:00:00 11.4 19 Noroeste 24 Noroeste 0 988.3 0.6 83
2017-09-19 07:00:00 11.1 15 Noroeste 23 Noroeste 0 987.9 0.4 86
2017-09-19 06:00:00 11.7 15 Noroeste 21 Oeste 0 987.8 0.3 84
2017-09-19 05:00:00 12.5 12 Noroeste 22 Oeste 0 987.7 0.4 80
2017-09-19 04:00:00 13.5 18 Oeste 32 Oeste 0 987.5 0.2 75
2017-09-19 03:00:00 14.2 15 Oeste 24 Noroeste 0 987.5 0.3 76
2017-09-19 02:00:00 15.1 14 Noroeste 22 Noroeste 0 987.3 0.3 72
2017-09-19 01:00:00 14.8 12 Noroeste 21 Noroeste 0 987.3 0.8 77
2017-09-19 00:00:00 15.2 16 Noroeste 25 Noroeste 0 987.2 1.7 78
2017-09-18 23:00:00 15.5 10 Oeste 20 Noroeste 0 987 2.7 80
2017-09-18 22:00:00 15.8 14 Noroeste 26 Noroeste 0 986.5 2.7 77
2017-09-18 21:00:00 17.2 16 Noroeste 34 Noroeste 0 985.5 1.9 65
2017-09-18 20:00:00 18.1 27 Noroeste 41 Noroeste 0 984.3 1.2 59
2017-09-18 19:00:00 19.2 30 Noroeste 45 Noroeste 0 983.8 0.7 58
2017-09-18 18:00:00 20.4 30 Noroeste 45 Noroeste 0 983.6 0.1 53
2017-09-18 17:00:00 21.2 31 Noroeste 49 Noroeste 0 983.1 -0.5 49
2017-09-18 16:00:00 20.4 32 Noroeste 43 Noroeste 0 983.1 -0.8 54
2017-09-18 15:00:00 20.1 26 Noroeste 39 Noroeste 0 983.5 -0.3 54
2017-09-18 14:00:00 19.7 24 Noroeste 37 Noroeste 0.2 983.6 -0.2 56
2017-09-18 13:00:00 18.1 14 Oeste 24 Oeste 0 983.9 0.5 62
2017-09-18 12:00:00 16.9 7 Oeste 15 Oeste 0 983.8 1 68
2017-09-18 11:00:00 15.4 8 Oeste 13 Oeste 0 983.8 1.4 79
2017-09-18 10:00:00 13.7 5 Oeste 9 Oeste 0 983.4 0.8 87
2017-09-18 09:00:00 12.5 3 Sudoeste 6 Sudeste 0 982.8 0.9 93
2017-09-18 08:00:00 12.4 4 Nordeste 14 Oeste 1.8 982.4 0.4 92
2017-09-18 07:00:00 12.6 8 Oeste 12 Oeste 0.8 982.6 0.7 88
2017-09-18 06:00:00 12.8 3 Este 6 Oeste 0 981.9 -0.6 73
2017-09-18 05:00:00 12.6 0 Calma 6 Sudeste 0 982 -0.6 72
2017-09-18 04:00:00 12 3 Este 6 Sudeste 0 981.9 -1.1 72
2017-09-18 03:00:00 11.7 3 Noroeste 11 Sudoeste 0 982.5 -0.9 72
2017-09-18 02:00:00 12.4 7 Sur 10 Sudoeste 0 982.6 -0.3 71
2017-09-18 01:00:00 13.2 8 Oeste 17 Noroeste 0 983 0.4 63
2017-09-18 00:00:00 14.3 12 Noroeste 14 Noroeste 0 983.4 1.3 59
2017-09-17 23:00:00 16.2 8 Noroeste 17 Norte 0 982.9 1.6 50
2017-09-17 22:00:00 17.3 14 Norte 19 Nordeste 0 982.6 1.4 46
2017-09-17 21:00:00 17.8 13 Norte 22 Nordeste 0 982.1 0.8 44
2017-09-17 20:00:00 19.6 19 Norte 30 Norte 0 981.3 -0.3 35
2017-09-17 19:00:00 21.3 8 Norte 26 Nordeste 0 981.2 -0.8 31
2017-09-17 18:00:00 22.2 10 Norte 24 Noroeste 0 981.3 -1.2 29
2017-09-17 17:00:00 21.7 12 Noroeste 24 Noroeste 0 981.6 -1.7 31
2017-09-17 16:00:00 21.6 10 Noroeste 27 Noroeste 0 982 -1.6 31
2017-09-17 15:00:00 21 10 Noroeste 21 Noroeste 0 982.5 -1.7 33
2017-09-17 14:00:00 19.6 6 Noroeste 15 Nordeste 0 983.3 -1.4 35
2017-09-17 13:00:00 18.2 5 Oeste 11 Sudoeste 0 983.6 -0.7 43
2017-09-17 12:00:00 16.9 3 Sudoeste 10 Oeste 0 984.2 0.3 48
2017-09-17 11:00:00 15 4 Sudoeste 8 Sudoeste 0 984.7 1.2 55
2017-09-17 10:00:00 12.4 2 Norte 4 Noroeste 0 984.3 1.3 64
2017-09-17 09:00:00 8.5 3 Norte 7 Norte 0 983.9 1.1 77
2017-09-17 08:00:00 5.9 4 Noroeste 5 Norte 0 983.5 0.6 80
2017-09-17 07:00:00 6.4 4 Norte 4 Norte 0 983 0.1 81
2017-09-17 06:00:00 6.3 3 Sudeste 6 Norte 0 982.8 -0.2 79
2017-09-17 05:00:00 7.1 0 Calma 3 Norte 0 982.9 -0.2 76
2017-09-17 04:00:00 7.5 0 Calma 4 Sudeste 0 982.9 -0.2 74
2017-09-17 03:00:00 8.3 3 Sudoeste 10 Sur 0 983 -0.3 72
2017-09-17 02:00:00 9.2 2 Oeste 5 Norte 0 983.1 0.4 75
2017-09-17 01:00:00 9.2 6 Noroeste 15 Oeste 0 983.1 0.8 74
2017-09-17 00:00:00 10.6 10 Oeste 14 Sur 0 983.3 1.8 69
2017-09-16 23:00:00 11.7 5 Noroeste 10 Sudoeste 0 982.7 1.6 61
2017-09-16 22:00:00 12.6 6 Oeste 15 Noroeste 0 982.3 1.9 58
2017-09-16 21:00:00 13.9 9 Noroeste 21 Noroeste 0 981.5 1.3 55
2017-09-16 20:00:00 15.7 18 Noroeste 39 Noroeste 0 981.1 1.4 51
2017-09-16 19:00:00 16.6 30 Noroeste 45 Noroeste 0 980.4 0.8 45
2017-09-16 18:00:00 16.9 33 Noroeste 53 Noroeste 0 980.2 0.1 45
2017-09-16 17:00:00 18.5 34 Noroeste 55 Noroeste 0 979.7 -0.9 41
2017-09-16 16:00:00 19.1 26 Noroeste 43 Noroeste 0 979.6 -1.2 32
2017-09-16 15:00:00 18.5 22 Noroeste 39 Noroeste 0 980.1 -1.2 38
2017-09-16 14:00:00 17.4 26 Noroeste 44 Oeste 0 980.6 -0.9 41
2017-09-16 13:00:00 17.1 18 Noroeste 38 Noroeste 0 980.8 -0.7 44
2017-09-16 12:00:00 16 21 Noroeste 38 Noroeste 0 981.3 0.2 50
2017-09-16 11:00:00 14.7 22 Noroeste 32 Noroeste 0 981.5 1 57
2017-09-16 10:00:00 12.5 12 Oeste 20 Noroeste 0 981.5 1.1 67
2017-09-16 09:00:00 9.9 13 Oeste 17 Oeste 0 981.1 0.7 77
2017-09-16 08:00:00 7.4 6 Sudoeste 13 Noroeste 0 980.5 -0.1 83
2017-09-16 07:00:00 8.4 9 Oeste 15 Oeste 0 980.4 -0.4 82
2017-09-16 06:00:00 8.5 10 Noroeste 19 Noroeste 0 980.4 -0.7 83
2017-09-16 05:00:00 8.7 12 Noroeste 19 Noroeste 0 980.6 -0.9 82
2017-09-16 04:00:00 9.1 13 Noroeste 24 Noroeste 0 980.8 -1 80
2017-09-16 03:00:00 9.2 17 Noroeste 21 Noroeste 0 981.1 -0.8 78
2017-09-16 02:00:00 10.3 7 Norte 21 Oeste 0 981.5 -0.4 71
2017-09-16 01:00:00 11.2 19 Oeste 28 Noroeste 0 981.8 0.1 67
2017-09-16 00:00:00 11.7 20 Noroeste 28 Noroeste 0 981.9 0.9 65
2017-09-15 23:00:00 12.4 22 Noroeste 30 Noroeste 0 981.9 1.6 61
2017-09-15 22:00:00 13.5 21 Noroeste 31 Noroeste 0 981.7 1.8 60
2017-09-15 21:00:00 14.3 21 Noroeste 34 Noroeste 0 981 1.4 52
2017-09-15 20:00:00 16.1 29 Noroeste 46 Noroeste 0 980.3 1 45
2017-09-15 19:00:00 17.9 28 Noroeste 46 Noroeste 0 979.9 0.1 40
2017-09-15 18:00:00 17.8 36 Noroeste 53 Noroeste 0 979.6 -0.8 43
2017-09-15 17:00:00 19.5 30 Noroeste 41 Norte 0 979.3 -1.5 37
2017-09-15 16:00:00 19 27 Noroeste 39 Oeste 0 979.8 -1.3 38
2017-09-15 15:00:00 18.6 21 Noroeste 39 Oeste 0 980.4 -1.4 41
2017-09-15 14:00:00 18.3 23 Noroeste 41 Noroeste 0 980.8 -1.5 43
2017-09-15 13:00:00 18.3 26 Noroeste 40 Oeste 0 981.1 -1 43
2017-09-15 12:00:00 17.2 23 Noroeste 41 Noroeste 0 981.8 -0.2 49
2017-09-15 11:00:00 15.1 28 Noroeste 43 Oeste 0 982.3 0.3 58
2017-09-15 10:00:00 14.9 26 Noroeste 36 Oeste 0 982.1 0.1 59
2017-09-15 09:00:00 12.9 23 Noroeste 34 Oeste 0 982 -0.3 66
2017-09-15 08:00:00 13 23 Noroeste 32 Oeste 0 982 -0.4 65
2017-09-15 07:00:00 13.3 23 Oeste 32 Noroeste 0 982 -0.8 64
2017-09-15 06:00:00 13.5 23 Noroeste 34 Noroeste 0 982.3 -1.1 65
2017-09-15 05:00:00 13.5 24 Oeste 36 Oeste 0 982.4 -0.9 64
2017-09-15 04:00:00 13.8 23 Noroeste 34 Noroeste 0 982.8 -1.8 63
2017-09-15 03:00:00 13.6 26 Oeste 45 Noroeste 0 983.4 -1.3 63
2017-09-15 02:00:00 13.8 26 Oeste 39 Noroeste 0 983.3 -1.2 64
2017-09-15 01:00:00 13.7 25 Oeste 34 Oeste 0 984.6 -0.3 63
2017-09-15 00:00:00 13.8 22 Noroeste 52 Noroeste 0 984.7 0 65
2017-09-14 23:00:00 14.1 34 Noroeste 48 Noroeste 0 984.5 0 61
2017-09-14 22:00:00 14.8 33 Noroeste 48 Noroeste 0 984.9 0.4 57
2017-09-14 21:00:00 15.7 30 Noroeste 46 Noroeste 0 984.7 -0.3 52
2017-09-14 20:00:00 17.3 36 Noroeste 49 Noroeste 0 984.5 -0.8 40
2017-09-14 19:00:00 18.3 37 Noroeste 50 Noroeste 0 984.5 -1.5 35
2017-09-14 18:00:00 19.1 34 Noroeste 50 Noroeste 0 985 -1.2 46
2017-09-14 17:00:00 19.4 35 Noroeste 52 Noroeste 0 985.3 -1 48
2017-09-14 16:00:00 18.8 37 Noroeste 56 Noroeste 0 986 -0.1 48
2017-09-14 15:00:00 19.6 36 Noroeste 59 Noroeste 0 986.2 0.2 45
2017-09-14 14:00:00 20.4 41 Noroeste 57 Noroeste 0 986.3 1.1 49
2017-09-14 13:00:00 20.2 38 Noroeste 53 Noroeste 0 986.1 1.6 49
2017-09-14 12:00:00 20.8 37 Noroeste 58 Noroeste 0 986 2 50
2017-09-14 11:00:00 20.3 39 Noroeste 53 Noroeste 0 985.2 1.9 62
2017-09-14 10:00:00 19.9 22 Noroeste 33 Noroeste 0 984.5 1.7 71
2017-09-14 09:00:00 17.1 14 Noroeste 23 Noroeste 0 984 1.6 81
2017-09-14 08:00:00 15.1 13 Noroeste 18 Oeste 0 983.3 0.9 89
2017-09-14 07:00:00 14.7 6 Noroeste 12 Noroeste 0 982.8 0.3 87
2017-09-14 06:00:00 14.8 6 Noroeste 14 Noroeste 0 982.4 -0.3 86
2017-09-14 05:00:00 14.6 9 Noroeste 14 Noroeste 0 982.4 -0.6 82
2017-09-14 04:00:00 16 3 Sudoeste 8 Oeste 0 982.5 -0.4 78
2017-09-14 03:00:00 17 3 Este 8 Oeste 0 982.7 -0.1 76
2017-09-14 02:00:00 18 8 Sudoeste 13 Sudoeste 0 983 0.4 77
2017-09-14 01:00:00 20.7 3 Nordeste 17 Este 0 982.9 0.1 56
2017-09-14 00:00:00 20.4 13 Este 21 Este 0 982.8 0.3 57
2017-09-13 23:00:00 22.8 19 Este 25 Este 0 982.6 0.4 48
2017-09-13 22:00:00 24 17 Este 21 Este 0 982.8 0.6 44
2017-09-13 21:00:00 24.9 10 Sudeste 13 Sudeste 0 982.5 -0.2 40
2017-09-13 20:00:00 28.7 6 Nordeste 17 Este 0 982.2 -1.2 31
2017-09-13 19:00:00 29.9 13 Este 24 Este 0 982.2 -2 27
2017-09-13 18:00:00 30 15 Este 28 Este 0 982.7 -2.7 29
2017-09-13 17:00:00 29.6 17 Este 29 Este 0 983.4 -2.8 30
2017-09-13 16:00:00 28.9 17 Este 27 Este 0 984.2 -2.8 31
2017-09-13 15:00:00 27.8 14 Este 28 Este 0 985.4 -2.3 34
2017-09-13 14:00:00 26.4 11 Este 26 Este 0 986.2 -1.7 39
2017-09-13 13:00:00 24.9 9 Sudeste 20 Sur 0 987 -0.8 44
2017-09-13 12:00:00 22.7 5 Sur 10 Sudeste 0 987.7 0 50
2017-09-13 11:00:00 20.2 3 Sudoeste 7 Oeste 0 987.9 0.5 58
2017-09-13 10:00:00 17.1 4 Oeste 7 Oeste 0 987.8 0.5 69
2017-09-13 09:00:00 14.3 2 Oeste 4 Norte 0 987.7 0.7 77
2017-09-13 08:00:00 11.9 3 Noroeste 5 Oeste 0 987.4 0.4 83
2017-09-13 07:00:00 12.3 4 Sur 5 Oeste 0 987.3 0.3 80
2017-09-13 06:00:00 12.7 2 Noroeste 8 Sudoeste 0 987 -0.2 81
2017-09-13 05:00:00 13 3 Noroeste 5 Norte 0 987 -0.1 73
2017-09-13 04:00:00 13.2 2 Sudoeste 6 Nordeste 0 987 0.1 73
2017-09-13 03:00:00 14.2 2 Oeste 5 Nordeste 0 987.2 0.4 73
2017-09-13 02:00:00 14.7 4 Norte 6 Oeste 0 987.1 0.9 70
2017-09-13 01:00:00 15.8 0 Calma 7 Oeste 0 986.9 1.3 67
2017-09-13 00:00:00 16.6 6 Oeste 10 Norte 0 986.8 1.9 67
2017-09-12 23:00:00 18.2 11 Norte 18 Norte 0 986.2 2.3 60
2017-09-12 22:00:00 18.8 10 Norte 23 Norte 0 985.6 2.3 57
2017-09-12 21:00:00 20.2 13 Norte 25 Norte 0 984.9 1.6 52
2017-09-12 20:00:00 22.2 16 Norte 25 Nordeste 0 983.9 0.1 43
2017-09-12 19:00:00 23.9 17 Norte 32 Noroeste 0 983.3 -0.7 36
2017-09-12 18:00:00 24.4 17 Norte 32 Noroeste 0 983.3 -1 34
2017-09-12 17:00:00 23.8 19 Noroeste 32 Noroeste 0 983.8 -0.9 35
2017-09-12 16:00:00 23.2 15 Noroeste 33 Oeste 0 984 -0.4 40
2017-09-12 15:00:00 22.5 18 Noroeste 32 Noroeste 0 984.3 -0.1 42
2017-09-12 14:00:00 21.1 21 Noroeste 34 Noroeste 0 984.7 0.6 50
2017-09-12 13:00:00 20.5 18 Noroeste 35 Noroeste 0 984.4 1 51
2017-09-12 12:00:00 19.1 21 Noroeste 31 Noroeste 0 984.4 1.3 56
2017-09-12 11:00:00 17.6 19 Noroeste 28 Noroeste 0 984.1 2.1 61
2017-09-12 10:00:00 16.9 21 Noroeste 28 Noroeste 0 983.4 1.7 65
2017-09-12 09:00:00 15.2 6 Oeste 12 Sudoeste 0 983.1 1.7 72
2017-09-12 08:00:00 14.8 9 Oeste 23 Noroeste 0 982 0.6 72
2017-09-12 07:00:00 15.4 18 Noroeste 25 Noroeste 0 981.7 0.2 69
2017-09-12 06:00:00 15.5 16 Noroeste 30 Noroeste 0 981.4 0.1 66
2017-09-12 05:00:00 16.3 23 Noroeste 31 Noroeste 0 981.4 0.4 66
2017-09-12 04:00:00 16.4 22 Noroeste 30 Noroeste 0 981.5 0.6 68
2017-09-12 03:00:00 16.6 18 Noroeste 39 Noroeste 0 981.3 0.7 69
2017-09-12 02:00:00 17.1 16 Noroeste 33 Noroeste 0 981 1.1 67
2017-09-12 01:00:00 17.5 18 Noroeste 30 Noroeste 0 980.9 1.2 63
2017-09-12 00:00:00 17.8 19 Noroeste 33 Noroeste 0 980.6 1.7 63
2017-09-11 23:00:00 18.3 26 Noroeste 35 Noroeste 0 979.9 1.5 61
2017-09-11 22:00:00 18.7 13 Noroeste 26 Noroeste 0 979.7 1.6 59
2017-09-11 21:00:00 19.2 17 Noroeste 35 Noroeste 0 978.9 1 59
2017-09-11 20:00:00 20.5 22 Norte 35 Norte 0 978.4 0.7 54
2017-09-11 19:00:00 21.8 22 Noroeste 41 Noroeste 0 978.1 0.2 49
2017-09-11 18:00:00 22.7 24 Norte 40 Noroeste 0 977.9 0.2 48
2017-09-11 17:00:00 23.2 24 Noroeste 40 Noroeste 0 977.7 -0.6 46
2017-09-11 16:00:00 24.2 26 Norte 48 Noroeste 0 977.9 -0.7 45
2017-09-11 15:00:00 24.3 36 Noroeste 52 Noroeste 0 977.7 -1.1 47
2017-09-11 14:00:00 23.1 37 Noroeste 52 Noroeste 0 978.3 -0.3 53
2017-09-11 13:00:00 22.7 26 Noroeste -- -- -- 978.6 0.6 56
2017-09-11 12:00:00 22.1 23 Noroeste 33 Noroeste 0 978.8 0.8 60
2017-09-11 11:00:00 20.5 22 Noroeste 36 Noroeste 0 978.6 0.6 62
2017-09-11 10:00:00 18.5 9 Noroeste 13 Noroeste 0 978 0.4 68
2017-09-11 09:00:00 15.6 3 Sudeste 5 Sudeste 0 978 0.3 75
2017-09-11 08:00:00 13.6 4 Sur 9 Sudoeste 0 978 0.1 81
2017-09-11 07:00:00 14.2 7 Sudoeste 10 Sudoeste 0 977.6 -0.7 79
2017-09-11 06:00:00 14 3 Sudoeste 8 Sur 0 977.7 -1 77
2017-09-11 05:00:00 14.5 3 Sur 5 Sudoeste 0 977.9 -0.8 77
2017-09-11 04:00:00 15.4 3 Oeste 10 Sudoeste 0 978.3 -0.9 76
2017-09-11 03:00:00 15.9 7 Oeste 16 Noroeste 0 978.7 -0.7 75
2017-09-11 02:00:00 16.6 13 Norte -- -- 0 978.7 -0.8 70
2017-09-11 01:00:00 17.1 9 Noroeste 14 Oeste 0 979.2 0 63
2017-09-11 00:00:00 17.4 10 Oeste -- -- 0 979.4 0.1 60
2017-09-10 23:00:00 17.8 6 Sudeste 16 Norte 0 979.5 0.7 58
2017-09-10 22:00:00 18 12 Noroeste 21 Norte 0 979.2 0.7 54
2017-09-10 21:00:00 18.9 15 Norte 24 Norte 0 979.3 0.8 51
2017-09-10 20:00:00 19.7 22 Norte 36 Norte 0 978.8 0 44
2017-09-10 19:00:00 20.6 28 Noroeste 44 Noroeste 0 978.5 -0.5 42
2017-09-10 18:00:00 21.6 29 Noroeste 46 Noroeste 0 978.5 -1.1 40
2017-09-10 17:00:00 20.8 30 Noroeste 45 Noroeste 0 978.8 -1 40
2017-09-10 16:00:00 21.4 35 Noroeste 56 Noroeste 0 979 -0.4 39
2017-09-10 15:00:00 20.3 42 Noroeste 54 Noroeste 0 979.6 0.1 45
2017-09-10 14:00:00 17.9 42 Noroeste 59 Noroeste 0 979.8 0.4 57
2017-09-10 13:00:00 18.8 38 Oeste 54 Oeste 0 979.4 0.8 54
2017-09-10 12:00:00 18.1 31 Noroeste 45 Noroeste 0 979.5 1 55
2017-09-10 11:00:00 15.9 31 Noroeste 50 Noroeste 0 979.4 1.7 62
2017-09-10 10:00:00 14.8 27 Noroeste 44 Oeste 0 978.6 1.3 68
2017-09-10 09:00:00 14.2 28 Noroeste 42 Noroeste 0 978.5 1.5 70
2017-09-10 08:00:00 13.9 22 Noroeste 33 Oeste 0 977.7 0.7 69
2017-09-10 07:00:00 13.7 23 Oeste 36 Oeste 0 977.3 0.3 70
2017-09-10 06:00:00 13.3 23 Noroeste 35 Oeste 0 977 0.3 73
2017-09-10 05:00:00 13.5 26 Noroeste 35 Noroeste 0 977 0.3 73
2017-09-10 04:00:00 13 19 Noroeste 35 Oeste 0 977 0.4 74
2017-09-10 03:00:00 12.9 21 Oeste 31 Oeste 0 976.7 0.2 73
2017-09-10 02:00:00 13.6 24 Oeste 45 Noroeste 0 976.7 0.6 71
2017-09-10 01:00:00 14.7 28 Oeste 39 Noroeste 0 976.6 1.1 66
2017-09-10 00:00:00 14.9 22 Noroeste 44 Noroeste 0 976.5 1.5 63
2017-09-09 23:00:00 15 24 Noroeste 36 Noroeste 0 976.1 1.5 62
2017-09-09 22:00:00 15.1 25 Noroeste 35 Noroeste 0 975.5 1.6 63
2017-09-09 21:00:00 16.6 27 Noroeste 48 Noroeste 0 975 1.7 56
2017-09-09 20:00:00 17.2 32 Noroeste 48 Noroeste 0 974.6 1.3 52
2017-09-09 19:00:00 18.7 37 Noroeste 50 Noroeste 0 973.9 0.5 46
2017-09-09 18:00:00 20.6 33 Noroeste 58 Noroeste 0 973.3 -0.8 41
2017-09-09 17:00:00 20.5 33 Noroeste 47 Noroeste 0 973.3 -1.1 43
2017-09-09 16:00:00 19.6 32 Noroeste 42 Noroeste 0 973.4 -1.3 43
2017-09-09 15:00:00 18.7 23 Oeste 38 Noroeste 0 974.1 -1 58
2017-09-09 14:00:00 19 28 Noroeste 46 Noroeste 0 974.4 -0.6 53
2017-09-09 13:00:00 18.5 23 Noroeste 35 Oeste 0 974.7 0.1 61
2017-09-09 12:00:00 17.1 20 Noroeste 30 Noroeste 0 975.1 1.3 67
2017-09-09 11:00:00 15.9 20 Noroeste 32 Noroeste 0 975 1.4 84
2017-09-09 10:00:00 16.6 21 Noroeste 36 Noroeste 0 974.6 1.1 79
2017-09-09 09:00:00 16.7 14 Noroeste 18 Noroeste 0 973.8 0.2 75
2017-09-09 08:00:00 16.5 10 Oeste 21 Oeste 0 973.6 0.2 74
2017-09-09 07:00:00 16.8 16 Noroeste 24 Noroeste 0 973.5 0.2 73
2017-09-09 06:00:00 16.4 17 Noroeste 22 Noroeste 0 973.6 -0.1 74
2017-09-09 05:00:00 16 10 Noroeste 19 Noroeste 0 973.4 -0.5 72
2017-09-09 04:00:00 16.1 13 Noroeste 18 Oeste 0 973.3 -1.1 68
2017-09-09 03:00:00 15.7 0 Calma 13 Oeste 0 973.7 -0.9 67
2017-09-09 02:00:00 16.1 5 Oeste 11 Sudoeste 0 973.9 -1.2 62
2017-09-09 01:00:00 15.8 7 Sudeste 10 Sur 0 974.4 -0.8 64
2017-09-09 00:00:00 17 6 Sur 10 Nordeste 0 974.6 -0.5 59
2017-09-08 23:00:00 18.1 6 Noroeste 8 Noroeste 0 975.1 0.3 56
2017-09-08 22:00:00 20.5 9 Sudeste 11 Sudeste 0 975.2 -0.4 47
2017-09-08 21:00:00 22.4 9 Oeste 14 Sudoeste 0 975.1 -1 41
2017-09-08 20:00:00 26.1 12 Sudoeste 15 Sudoeste 0 974.8 -1.8 32
2017-09-08 19:00:00 27.6 4 Sur 15 Noroeste 0 975.6 -1.9 24
2017-09-08 18:00:00 28.1 5 Oeste 16 Sudoeste 0 976.1 -2.7 22
2017-09-08 17:00:00 27.3 4 Nordeste 16 Oeste 0 976.6 -3.5 23
2017-09-08 16:00:00 27 5 Sudoeste 14 Oeste 0 977.5 -3.5 25
2017-09-08 15:00:00 25.4 6 Noroeste 19 Noroeste 0 978.8 -3 28
2017-09-08 14:00:00 22.9 8 Noroeste 26 Noroeste 0 980.1 -1.9 39
2017-09-08 13:00:00 20.8 9 Oeste 17 Sudoeste 0 981 -1.1 46
2017-09-08 12:00:00 18.9 6 Oeste 18 Oeste 0 981.8 -0.2 56
2017-09-08 11:00:00 16.6 12 Oeste 19 Oeste 0 982 0 63
2017-09-08 10:00:00 14.6 12 Oeste 19 Oeste 0 982.1 0.1 71
2017-09-08 09:00:00 12.1 4 Noroeste 14 Noroeste 0 982 -0.4 80
2017-09-08 08:00:00 10.9 10 Noroeste 16 Noroeste 0 982 -1 84
2017-09-08 07:00:00 10.8 9 Noroeste 13 Oeste 0 982 -1.4 83
2017-09-08 06:00:00 12.1 11 Oeste 22 Oeste 0 982.4 -1.3 80
2017-09-08 05:00:00 12.6 11 Oeste 25 Oeste 0 983 -0.9 78
2017-09-08 04:00:00 13.6 18 Oeste 26 Oeste 0 983.4 -0.7 74
2017-09-08 03:00:00 14 17 Oeste 25 Oeste 0 983.7 -0.5 72
2017-09-08 02:00:00 14.2 19 Oeste 26 Oeste 0 983.9 -0.6 73
2017-09-08 01:00:00 15 20 Oeste 28 Oeste 0 984.1 0.2 70
2017-09-08 00:00:00 15.3 19 Oeste 28 Noroeste 0 984.2 0.8 69
2017-09-07 23:00:00 16.2 18 Noroeste 35 Noroeste 0 984.5 1.5 64
2017-09-07 22:00:00 17.2 27 Noroeste 33 Noroeste 0 983.9 1.1 60
2017-09-07 21:00:00 18.4 19 Noroeste 40 Noroeste 0 983.4 0.7 56
2017-09-07 20:00:00 20.6 26 Noroeste 42 Noroeste 0 983 0 47
2017-09-07 19:00:00 22 31 Noroeste 49 Noroeste 0 982.8 -0.7 44
2017-09-07 18:00:00 22.5 37 Noroeste 51 Noroeste 0 982.7 -1.4 43
2017-09-07 17:00:00 23.3 38 Noroeste 52 Noroeste 0 983 -1.8 40
2017-09-07 16:00:00 23.9 36 Noroeste 51 Noroeste 0 983.5 -2.1 38
2017-09-07 15:00:00 23.3 32 Noroeste 44 Noroeste 0 984.1 -2.1 40
2017-09-07 14:00:00 22.2 31 Noroeste 46 Oeste 0 984.8 -1.5 43
2017-09-07 13:00:00 20.9 33 Noroeste 49 Noroeste 0 985.6 -0.6 46
2017-09-07 12:00:00 19.9 32 Noroeste 56 Oeste 0 986.2 -0.2 48
2017-09-07 11:00:00 18.7 30 Noroeste 51 Noroeste 0 986.3 0.4 53
2017-09-07 10:00:00 17.1 27 Oeste 40 Noroeste 0 986.2 0.3 60
2017-09-07 09:00:00 15.2 28 Oeste 37 Oeste 0 986.4 0 66
2017-09-07 08:00:00 14.5 24 Noroeste 36 Noroeste 0 985.9 -0.8 69
2017-09-07 07:00:00 14.5 24 Noroeste 36 Noroeste 0 985.9 -0.7 68
2017-09-07 06:00:00 14.3 20 Noroeste 36 Noroeste 0 986.4 -0.7 70
2017-09-07 05:00:00 14.6 23 Oeste 36 Oeste 0 986.7 -0.9 69
2017-09-07 04:00:00 15 28 Noroeste 42 Noroeste 0 986.6 -1.1 68
2017-09-07 03:00:00 15.9 31 Oeste 48 Noroeste 0 987.1 -0.8 66
2017-09-07 02:00:00 16.6 37 Noroeste 62 Noroeste 0 987.6 -0.3 61
2017-09-07 01:00:00 17.2 45 Noroeste 60 Noroeste 0 987.7 0 60
2017-09-07 00:00:00 17.2 33 Noroeste 60 Noroeste 0 987.9 0.9 62
2017-09-06 23:00:00 17.7 44 Noroeste 67 Noroeste 0 987.9 1.3 60
2017-09-06 22:00:00 17.7 40 Noroeste 58 Noroeste 0 987.7 1.1 58
2017-09-06 21:00:00 18.4 41 Noroeste 63 Noroeste 0 987 0.4 58
2017-09-06 20:00:00 20.3 42 Noroeste 59 Noroeste 0 986.6 -0.4 52
2017-09-06 19:00:00 22.2 39 Noroeste 57 Noroeste 0 986.6 -0.7 46
2017-09-06 18:00:00 23.6 42 Noroeste 58 Noroeste 0 986.6 -1.3 43
2017-09-06 17:00:00 24.9 38 Noroeste 54 Noroeste 0 987 -1.2 40
2017-09-06 16:00:00 25.7 35 Noroeste 51 Noroeste 0 987.3 -1.6 40
2017-09-06 15:00:00 25.7 35 Noroeste 52 Noroeste 0 987.9 -1.2 43
2017-09-06 14:00:00 25.3 35 Noroeste 53 Noroeste 0 988.2 -0.8 47
2017-09-06 13:00:00 24.5 38 Noroeste 55 Oeste 0 988.9 -0.1 52
2017-09-06 12:00:00 23.2 35 Oeste 47 Oeste 0 989.1 -0.1 58
2017-09-06 11:00:00 21.9 35 Oeste 46 Noroeste 0 989 0.1 62
2017-09-06 10:00:00 20.6 33 Oeste 46 Oeste 0 989 0.5 65
2017-09-06 09:00:00 18.7 24 Oeste 40 Noroeste 0 989.2 0.8 71
2017-09-06 08:00:00 18.6 26 Oeste 39 Oeste 0 988.9 0.2 72
2017-09-06 07:00:00 18.6 25 Oeste 37 Noroeste 0 988.5 -0.4 71
2017-09-06 06:00:00 18.5 28 Oeste 36 Oeste 0 988.4 -0.3 72
2017-09-06 05:00:00 18.4 25 Noroeste 35 Noroeste 0 988.7 -0.1 73
2017-09-06 04:00:00 18.7 26 Noroeste 36 Noroeste 0 988.9 0.2 73
2017-09-06 03:00:00 19.1 26 Noroeste 37 Noroeste 0 988.7 0.3 71
2017-09-06 02:00:00 19.2 21 Noroeste 32 Noroeste 0 988.8 0.8 71
2017-09-06 01:00:00 19.7 21 Noroeste 36 Noroeste 0 988.7 1.4 67
2017-09-06 00:00:00 20.3 24 Noroeste 37 Noroeste 0 988.4 2.3 67
2017-09-05 23:00:00 20.9 26 Noroeste 33 Noroeste 0 988 3.1 69
2017-09-05 22:00:00 23.4 12 Oeste 26 Noroeste 0 987.3 2.8 62
2017-09-05 21:00:00 25.1 23 Norte 38 Norte 0 986.1 1.6 58
2017-09-05 20:00:00 28.5 26 Norte 36 Norte 0 984.9 0.1 47
2017-09-05 19:00:00 31.4 11 Noroeste 23 Norte 0 984.5 -0.7 27
2017-09-05 18:00:00 31.3 9 Norte 18 Noroeste 0 984.5 -1.1 31
2017-09-05 17:00:00 30.9 7 Norte 16 Norte 0 984.8 -1.4 33
2017-09-05 16:00:00 30.4 6 Nordeste 19 Este 0 985.2 -1.7 38
2017-09-05 15:00:00 29.5 8 Este 19 Sudeste 0 985.6 -1.9 43
2017-09-05 14:00:00 28 10 Este 21 Este 0 986.2 -1.3 51
2017-09-05 13:00:00 26.3 12 Este 19 Este 0 986.9 -0.1 59
2017-09-05 12:00:00 25.2 8 Este 15 Este 0 987.5 0.5 63
2017-09-05 11:00:00 23.2 6 Sudeste 12 Este 0 987.5 1.1 69
2017-09-05 10:00:00 21.1 5 Sudeste 8 Sudeste 0 987 1.2 77
2017-09-05 09:00:00 17.9 3 Sudeste 6 Sur 0 987 1 84
2017-09-05 08:00:00 15.6 3 Sur 12 Sudeste 0 986.4 0.5 88
2017-09-05 07:00:00 15.6 8 Sudeste 10 Sudeste 0 985.8 -0.1 86
2017-09-05 06:00:00 15.7 4 Oeste 9 Este 0 986 0.4 84
2017-09-05 05:00:00 16 3 Noroeste 6 Norte 0 985.9 0.4 83
2017-09-05 04:00:00 16.7 4 Noroeste 6 Oeste 0 985.9 0.5 82
2017-09-05 03:00:00 17.1 3 Oeste 4 Oeste 0 985.6 0.6 79
2017-09-05 02:00:00 18 0 Calma 7 Oeste 0 985.5 1 79
2017-09-05 01:00:00 18.6 6 Nordeste 9 Noroeste 0 985.4 1.4 76
2017-09-05 00:00:00 20.2 3 Oeste 12 Sudoeste 0 985 1.9 70
2017-09-04 23:00:00 22 3 Noroeste 17 Norte 0 984.5 2 60
2017-09-04 22:00:00 22.8 10 Norte 17 Norte 0 984 1.9 58
2017-09-04 21:00:00 24.8 7 Noroeste 24 Noroeste 0 983.1 1.3 48
2017-09-04 20:00:00 27.4 17 Noroeste 25 Noroeste 0 982.5 0.8 39
2017-09-04 19:00:00 28.3 17 Noroeste 30 Noroeste 0 982.1 0.3 37
2017-09-04 18:00:00 28.6 18 Noroeste 27 Noroeste 0 981.8 0 36
2017-09-04 17:00:00 27.8 15 Noroeste 26 Oeste 0 981.7 -0.2 38
2017-09-04 16:00:00 28.6 18 Oeste 30 Oeste 0 981.8 -0.2 36
2017-09-04 15:00:00 27.3 14 Noroeste 30 Noroeste 0 981.8 0.1 40
2017-09-04 14:00:00 26.2 12 Noroeste 25 Noroeste 0 981.9 0.4 45
2017-09-04 13:00:00 25.6 19 Noroeste 29 Noroeste 0 982 1.1 47
2017-09-04 12:00:00 24.8 12 Noroeste 21 Noroeste 0 981.7 1.5 51
2017-09-04 11:00:00 22.8 12 Noroeste 26 Oeste 0 981.5 1.9 59
2017-09-04 10:00:00 19.4 7 Noroeste 11 Noroeste 0 980.9 2.3 75
2017-09-04 09:00:00 17.8 4 Norte 7 Noroeste 0 980.2 2.1 81
2017-09-04 08:00:00 15.9 0 Calma 6 Sudeste 0 979.6 1.8 89
2017-09-04 07:00:00 16.4 6 Oeste 9 Oeste 0 978.6 1.1 89
2017-09-04 06:00:00 17.1 4 Sudoeste 8 Sudeste 0 978.1 0.3 85
2017-09-04 05:00:00 17.9 3 Noroeste 6 Este 0 977.8 -0.2 84
2017-09-04 04:00:00 18.4 7 Sudeste 9 Sudeste 0 977.5 -0.5 83
2017-09-04 03:00:00 19.2 5 Nordeste 12 Este 0.2 977.8 -0.4 81
2017-09-04 02:00:00 19.9 6 Nordeste 8 Nordeste 0 978 -0.6 70
2017-09-04 01:00:00 20.5 2 Sur 12 Sudeste 0 978 -0.6 63
2017-09-04 00:00:00 21.3 3 Nordeste 11 Norte 0 978.2 0.2 67
2017-09-03 23:00:00 22 9 Norte 10 Norte 0 978.6 0.6 52
2017-09-03 22:00:00 22.7 4 Sudoeste 10 Norte 0 978.6 0.4 47
2017-09-03 21:00:00 23.8 3 Norte 10 Oeste 0 978 -0.2 42
2017-09-03 20:00:00 25.1 8 Sudoeste 13 Sudoeste 0 978 -0.9 35
2017-09-03 19:00:00 25.9 13 Sudoeste 16 Sudoeste 0 978.2 -1.3 32
2017-09-03 18:00:00 26.5 10 Sudoeste 21 Oeste 0 978.2 -2.2 30
2017-09-03 17:00:00 27.8 11 Oeste 22 Oeste 0 978.9 -2 24
2017-09-03 16:00:00 26.8 6 Noroeste 13 Norte 0 979.5 -2.3 27
2017-09-03 15:00:00 25.6 9 Norte 16 Noroeste 0 980.4 -1.8 28
2017-09-03 14:00:00 24.3 5 Norte 11 Norte 0 980.9 -2.1 35
2017-09-03 13:00:00 21.8 4 Norte 12 Norte 0 981.8 -0.7 45
2017-09-03 12:00:00 19.5 4 Este 9 Este 0 982.2 -0.3 53
2017-09-03 11:00:00 17.1 6 Noroeste 9 Noroeste 0 983 0 64
2017-09-03 10:00:00 15.2 3 Noroeste 9 Nordeste 0 982.5 -0.3 72
2017-09-03 09:00:00 13.6 3 Oeste 14 Este 0 982.5 -0.5 86
2017-09-03 08:00:00 12.8 3 Sur 7 Sur 0 983 -0.3 87
2017-09-03 07:00:00 12.8 2 Nordeste 5 Nordeste 0 982.8 -0.9 86
2017-09-03 06:00:00 12.8 0 Calma 5 Sur 0 983 -1.2 85
2017-09-03 05:00:00 13.1 4 Sur 5 Sur 0 983.3 -1.6 84
2017-09-03 04:00:00 13.2 4 Oeste 9 Norte 0 983.7 -1.6 85
2017-09-03 03:00:00 13.9 5 Norte 7 Norte 0 984.2 -1.4 80
2017-09-03 02:00:00 14.5 3 Sur 7 Oeste 0 984.9 -0.7 77
2017-09-03 01:00:00 14.2 5 Sudoeste 8 Oeste 0 985.3 -0.3 77
2017-09-03 00:00:00 14.9 4 Norte 17 Noroeste 0 985.6 0.5 73
2017-09-02 23:00:00 16.5 12 Oeste 18 Oeste 0 985.6 0.8 66
2017-09-02 22:00:00 17.3 9 Oeste 14 Noroeste 0 985.6 0.4 65
2017-09-02 21:00:00 19.3 8 Noroeste 25 Norte 0 985.1 -0.4 53
2017-09-02 20:00:00 21.8 18 Norte 29 Norte 0 984.8 -1.5 42
2017-09-02 19:00:00 23.1 19 Noroeste 37 Noroeste 0 985.2 -1.8 38
2017-09-02 18:00:00 23.2 23 Noroeste 40 Noroeste 0 985.5 -2.1 37
2017-09-02 17:00:00 22.6 22 Noroeste 40 Noroeste 0 986.3 -2.2 41
2017-09-02 16:00:00 22.9 26 Noroeste 47 Noroeste 0 987 -2 39
2017-09-02 15:00:00 22.4 30 Noroeste 46 Noroeste 0 987.6 -1.7 43
2017-09-02 14:00:00 20.9 18 Noroeste 40 Noroeste 0 988.5 -1.2 47
2017-09-02 13:00:00 20.6 25 Noroeste 41 Noroeste 0 989 -0.5 45
2017-09-02 12:00:00 19.3 26 Noroeste 39 Noroeste 0 989.3 -0.3 51
2017-09-02 11:00:00 17.8 23 Noroeste 37 Oeste 0 989.7 0.6 56
2017-09-02 10:00:00 16.4 23 Noroeste 32 Oeste 0 989.5 0.6 65
2017-09-02 09:00:00 14.7 22 Oeste 30 Oeste 0 989.6 0.9 72
2017-09-02 08:00:00 13.1 15 Oeste 33 Noroeste 0 989.1 0.3 79
2017-09-02 07:00:00 12.8 11 Noroeste 27 Oeste 0 988.9 0 80
2017-09-02 06:00:00 12.7 14 Oeste 20 Noroeste 0 988.7 -0.3 80
2017-09-02 05:00:00 13.1 13 Oeste 23 Oeste 0 988.8 -0.4 78
2017-09-02 04:00:00 14.6 17 Oeste 33 Oeste 0 988.9 -0.1 72
2017-09-02 03:00:00 14.1 23 Noroeste 30 Noroeste 0 989 0 75
2017-09-02 02:00:00 14.1 15 Noroeste 28 Noroeste 0 989.2 0.6 77
2017-09-02 01:00:00 14.4 14 Noroeste 24 Noroeste 0 989 1.3 75
2017-09-02 00:00:00 15.1 12 Noroeste 34 Oeste 0 989 2.7 74
2017-09-01 23:00:00 15.4 18 Oeste 31 Noroeste 0 988.6 2.9 73
2017-09-01 22:00:00 16.7 22 Noroeste 48 Noroeste 0 987.7 2.5 63
2017-09-01 21:00:00 18.3 35 Noroeste 51 Noroeste 0 986.3 1.4 54
2017-09-01 20:00:00 19.9 35 Noroeste 54 Noroeste 0 985.7 0.9 47
2017-09-01 19:00:00 21.4 36 Noroeste 51 Noroeste 0 985.2 -0.2 42
2017-09-01 18:00:00 22.8 31 Noroeste 50 Norte 0 984.9 -1.1 39
2017-09-01 17:00:00 23.4 30 Noroeste 47 Noroeste 0 984.8 -1.6 34
2017-09-01 16:00:00 23.2 30 Noroeste 45 Noroeste 0 985.4 -1.5 32
2017-09-01 15:00:00 23.1 26 Noroeste 41 Noroeste 0 986 -1.3 34
2017-09-01 14:00:00 21.8 27 Noroeste 43 Oeste 0 986.4 -0.9 42
2017-09-01 13:00:00 20.6 25 Noroeste 41 Noroeste 0 986.9 0 51
2017-09-01 12:00:00 19.5 24 Noroeste 39 Oeste 0 987.3 0.6 56
2017-09-01 11:00:00 18 24 Noroeste 36 Noroeste 0 987.3 0.9 62
2017-09-01 10:00:00 16.5 24 Oeste 32 Noroeste 0 986.9 0.8 68
2017-09-01 09:00:00 14.8 19 Oeste 27 Oeste 0 986.7 0.8 72
2017-09-01 08:00:00 13.1 13 Oeste 29 Oeste 0 986.4 0.3 80
2017-09-01 07:00:00 13.8 21 Oeste 33 Oeste 0 986.1 -0.1 77
2017-09-01 06:00:00 13.4 21 Noroeste 30 Oeste 0 985.9 -0.6 80
2017-09-01 05:00:00 13.7 18 Noroeste 27 Oeste 0 986.1 -0.4 79
2017-09-01 04:00:00 14 18 Noroeste 31 Noroeste 0 986.2 -0.1 77
2017-09-01 03:00:00 14.6 22 Noroeste 29 Noroeste 0 986.5 0 75
2017-09-01 02:00:00 15 19 Noroeste 31 Oeste 0 986.5 0.3 76
2017-09-01 01:00:00 15.2 22 Oeste 30 Oeste 0 986.3 0.6 76
2017-09-01 00:00:00 16 20 Noroeste 27 Noroeste 0 986.5 1.9 70
2017-08-31 23:00:00 17.4 17 Oeste 24 Noroeste 0 986.2 2.2 68
2017-08-31 22:00:00 18.5 15 Noroeste 24 Noroeste 0 985.7 2.1 65
2017-08-31 21:00:00 19.5 19 Noroeste 31 Noroeste 0 984.6 1 53
2017-08-31 20:00:00 20.8 21 Noroeste 33 Noroeste 0 984 0.2 50
2017-08-31 19:00:00 22.5 23 Noroeste 36 Noroeste 0 983.6 -0.5 42
2017-08-31 18:00:00 23.4 26 Noroeste 38 Noroeste 0 983.6 -1 41
2017-08-31 17:00:00 23.4 23 Noroeste 43 Noroeste 0 983.8 -1.1 42
2017-08-31 16:00:00 23.1 29 Noroeste 41 Noroeste 0 984.1 -1.5 45
2017-08-31 15:00:00 22.5 26 Noroeste 43 Noroeste 0 984.6 -1.2 50
2017-08-31 14:00:00 21.9 22 Noroeste 41 Oeste 0 984.9 -0.8 55
2017-08-31 13:00:00 20.6 28 Noroeste 42 Noroeste 0.4 985.6 0.2 59
2017-08-31 12:00:00 18.6 29 Noroeste 46 Noroeste 0 985.8 0.9 66
2017-08-31 11:00:00 18.3 31 Noroeste 43 Noroeste 0 985.7 1.4 66
2017-08-31 10:00:00 16.2 22 Oeste 34 Noroeste 0 985.4 1.2 77
2017-08-31 09:00:00 15.4 19 Oeste 42 Oeste 0 984.9 1.1 81
2017-08-31 08:00:00 15.3 26 Oeste 33 Noroeste 0 984.3 1 86
2017-08-31 07:00:00 15.2 18 Oeste 34 Noroeste 0.6 984.2 1 89
2017-08-31 06:00:00 15.2 24 Oeste 39 Noroeste 0 983.8 1 89
2017-08-31 05:00:00 15.3 27 Noroeste 37 Noroeste 0 983.3 0.6 89
2017-08-31 04:00:00 15.9 22 Noroeste 41 Noroeste 0.2 983.2 0.4 88
2017-08-31 03:00:00 16.9 27 Noroeste 41 Noroeste 0 982.8 0.6 86
2017-08-31 02:00:00 16.9 18 Noroeste 28 Noroeste 0 982.7 1.4 91
2017-08-31 01:00:00 17.1 11 Noroeste 34 Noroeste 0.2 982.8 2.9 92
2017-08-31 00:00:00 17.3 21 Noroeste 29 Noroeste 2.4 982.2 3.6 92
2017-08-30 23:00:00 20.2 19 Norte 28 Nordeste 0 981.3 3.1 73
2017-08-30 22:00:00 20.6 12 Noroeste 29 Noroeste 0 979.9 2.2 77
2017-08-30 21:00:00 22.6 8 Noroeste 16 Noroeste 0 978.6 0.5 73
2017-08-30 20:00:00 24.6 9 Norte 13 Norte 0 978.2 0.2 63
2017-08-30 19:00:00 25.8 10 Nordeste 16 Noroeste 0 977.7 -0.7 55
2017-08-30 18:00:00 24.6 15 Noroeste 24 Noroeste 0 978.1 -0.8 66
2017-08-30 17:00:00 26.9 14 Este 25 Este 0 978 -1.4 50
2017-08-30 16:00:00 26.8 15 Este 25 Este 0 978.4 -1.2 49
2017-08-30 15:00:00 25.6 13 Este 23 Este 0 978.9 -1.5 55
2017-08-30 14:00:00 25.4 9 Este 24 Sudeste 0 979.4 -0.6 58
2017-08-30 13:00:00 24.7 11 Sudeste 26 Sudeste 0 979.6 -0.4 62
2017-08-30 12:00:00 23.8 16 Sudeste 28 Este 0.2 980.4 0.1 64
2017-08-30 11:00:00 22 20 Este 29 Este 0 980 -0.1 72
2017-08-30 10:00:00 20.5 16 Este 22 Este 0 980 0.3 78
2017-08-30 09:00:00 17.2 6 Sudeste 10 Este 0 980.3 0.3 92
2017-08-30 08:00:00 16.4 3 Noroeste 8 Sudeste 0 980.1 0.3 92
2017-08-30 07:00:00 16.7 3 Sur 13 Este 0 979.7 -0.5 90
2017-08-30 06:00:00 17.4 9 Este 12 Este 0 980 0.4 88
2017-08-30 05:00:00 17.7 8 Este 13 Sudeste 0 979.8 0 88
2017-08-30 04:00:00 17.7 10 Este 15 Este 0 980.2 0.3 91
2017-08-30 03:00:00 18.1 9 Este 15 Este 0 979.6 -0.2 89
2017-08-30 02:00:00 17.7 4 Sur 8 Nordeste 0 979.8 0.4 93
2017-08-30 01:00:00 17.9 2 Sur 7 Oeste 0 979.9 0.4 92
2017-08-30 00:00:00 18 5 Sudoeste 10 Sudeste 0 979.8 0.5 92
2017-08-29 23:00:00 18.3 2 Sur 9 Norte 0 979.4 0.5 91
2017-08-29 22:00:00 18.9 9 Este 21 Este 0 979.5 0 88
2017-08-29 21:00:00 18.4 19 Este 40 Este 0 979.3 0.5 90
2017-08-29 20:00:00 19.2 15 Nordeste 27 Nordeste 0.4 978.9 0.9 84
2017-08-29 19:00:00 18.9 26 Este 46 Nordeste 2.4 979.5 1.1 80
2017-08-29 18:00:00 21.8 25 Sur 38 Sur 0.2 978.8 -0.6 82
2017-08-29 17:00:00 25.6 11 Este 26 Este 0 978 -1.9 63
2017-08-29 16:00:00 26.9 14 Este 24 Nordeste 0 978.4 -2.4 53
2017-08-29 15:00:00 26.1 5 Oeste 16 Sudeste 0 979.4 -1.2 62
2017-08-29 14:00:00 24.7 6 Sudoeste 11 Sur 0 979.9 0 66
2017-08-29 13:00:00 22.9 6 Sudoeste 19 Oeste 0 980.8 0 74
2017-08-29 12:00:00 21.5 11 Oeste 25 Nordeste 0 980.6 -1.6 82
2017-08-29 11:00:00 20.5 18 Nordeste 30 Nordeste 0 979.9 -0.2 83
2017-08-29 10:00:00 17.4 13 Noroeste 18 Noroeste 2 980.8 1.2 96
2017-08-29 09:00:00 16.4 11 Sudeste 17 Sudeste 0 982.2 2.4 97
2017-08-29 08:00:00 15.6 3 Sudeste 7 Sur 0 980.1 0.1 97
2017-08-29 07:00:00 15.6 0 Calma 7 Nordeste 0 979.6 -1.2 96
2017-08-29 06:00:00 16.1 4 Nordeste 5 Nordeste 0 979.8 -1.1 96
2017-08-29 05:00:00 16.7 5 Sur 12 Sudoeste 0 980 -1.6 95
2017-08-29 04:00:00 17.1 10 Sudoeste 15 Sudoeste 0 980.8 -0.4 95
2017-08-29 03:00:00 17.2 7 Sudoeste 11 Sudoeste 0 980.9 -1.3 94
2017-08-29 02:00:00 17.8 3 Nordeste 23 Norte 0.2 981.6 0.5 91
2017-08-29 01:00:00 17.9 15 Norte 26 Norte 0.4 981.2 0.3 93
2017-08-29 00:00:00 18.2 16 Sudoeste 34 Sudoeste 2.2 982.2 1.6 94
2017-08-28 23:00:00 19.1 19 Sudoeste 30 Oeste 0.2 981.1 1.8 82
2017-08-28 22:00:00 19.6 3 Norte 31 Noroeste 0 980.9 0.5 80
2017-08-28 21:00:00 19.8 16 Noroeste 39 Noroeste 0 980.6 0.2 78
2017-08-28 20:00:00 19.9 20 Noroeste 43 Noroeste 0.4 979.3 -0.3 84
2017-08-28 19:00:00 21.9 11 Noroeste 19 Noroeste 1.2 980.4 1.3 87
2017-08-28 18:00:00 23.8 10 Oeste 22 Sudoeste 1 980.4 1.3 82
2017-08-28 17:00:00 26.2 8 Sudoeste 30 Sudoeste 0 979.6 -1 59
2017-08-28 16:00:00 27.8 8 Sudoeste 13 Sudoeste 0 979.1 -2.6 51
2017-08-28 15:00:00 28.5 4 Noroeste 18 Oeste 0 979.1 -2.6 51
2017-08-28 14:00:00 26.6 12 Oeste 19 Oeste 0 980.6 -1.3 63
2017-08-28 13:00:00 24.4 13 Sudoeste 20 Sudoeste 0.2 981.7 -1 72
2017-08-28 12:00:00 23.2 5 Noroeste 15 Oeste 0 981.7 -0.4 73
2017-08-28 11:00:00 20.4 10 Noroeste 14 Oeste 0 981.9 0.4 87
2017-08-28 10:00:00 18.4 5 Sudeste 11 Sudoeste 0 982.7 1.4 93
2017-08-28 09:00:00 17.2 5 Sudoeste 8 Sudoeste 0 982.1 0.7 96
2017-08-28 08:00:00 16.4 3 Sudoeste 5 Sudoeste 0 981.5 0.2 95
2017-08-28 07:00:00 16.5 0 Calma 8 Sudeste 0 981.3 -0.1 96
2017-08-28 06:00:00 16.5 4 Oeste 7 Este 0 981.4 -0.3 96
2017-08-28 05:00:00 16.9 5 Nordeste 18 Este 0 981.3 -0.6 96
2017-08-28 04:00:00 17.9 13 Este 16 Este 0 981.4 -0.2 95
2017-08-28 03:00:00 17.9 7 Este 19 Este 0 981.7 -0.3 94
2017-08-28 02:00:00 17.7 10 Sudeste 13 Este 0 981.9 -0.3 95
2017-08-28 01:00:00 18.3 6 Este 11 Sudeste 0 981.6 -0.8 94
2017-08-28 00:00:00 18.7 9 Norte 12 Norte 0 982 -0.3 94
2017-08-27 23:00:00 19.2 3 Norte 9 Nordeste 0 982.2 -0.5 93
2017-08-27 22:00:00 19.9 3 Norte 10 Nordeste 0 982.4 0.2 91
2017-08-27 21:00:00 20.4 9 Sur 19 Sur 0 982.3 -2.1 89
2017-08-27 20:00:00 20.9 10 Sur 26 Sudeste 0 982.7 -1.7 85
2017-08-27 19:00:00 21.4 5 Este 19 Nordeste 0.2 982.2 -0.3 87
2017-08-27 18:00:00 21.3 3 Noroeste 18 Norte 1.6 984.4 2.9 87
2017-08-27 17:00:00 21.5 9 Oeste 13 Oeste 1 984.4 4.2 89
2017-08-27 16:00:00 22 10 Oeste 37 Sudoeste 1.8 982.5 1.5 82
2017-08-27 15:00:00 26.6 22 Sudoeste 27 Sudoeste 0 981.5 0 61
2017-08-27 14:00:00 29 6 Nordeste 20 Este 0 980.2 -1.5 47
2017-08-27 13:00:00 28.4 16 Este 29 Este 0 981 -0.8 49
2017-08-27 12:00:00 26.4 18 Este 24 Este 0 981.5 0.4 59
2017-08-27 11:00:00 24.1 3 Noroeste 6 Sur 0 981.7 1.1 68
2017-08-27 10:00:00 21.9 2 Sudoeste 5 Oeste 0 981.8 1.7 79
2017-08-27 09:00:00 21.4 4 Norte 15 Este 0 981.1 0.8 79
2017-08-27 08:00:00 20.2 9 Nordeste 14 Norte 0 980.6 -0.4 82
2017-08-27 07:00:00 20.8 5 Sur 21 Este 0 980.1 -0.4 80
2017-08-27 06:00:00 21.5 15 Nordeste 21 Nordeste 0 980.3 -0.3 76
2017-08-27 05:00:00 21.5 11 Sudeste 23 Este 0 981 0.4 80
2017-08-27 04:00:00 22 11 Nordeste 21 Sudeste 0 980.5 -0.5 79
2017-08-27 03:00:00 21.9 11 Este 18 Este 0 980.6 -1.7 80
2017-08-27 02:00:00 21.8 10 Nordeste 17 Este 0 980.6 -1.9 80
2017-08-27 01:00:00 21.8 6 Nordeste 20 Este 0.2 981 -1.5 84
2017-08-27 00:00:00 22.3 6 Sudoeste 18 Este 0 982.3 3 85
2017-08-26 23:00:00 22.8 3 Sudeste 24 Nordeste 0.2 982.5 4.2 82
2017-08-26 22:00:00 22.8 6 Nordeste 46 Este 3.6 982.5 4.7 69
2017-08-26 21:00:00 27.7 31 Este 56 Sudeste 0 979.3 1.3 40
2017-08-26 20:00:00 32.1 15 Este 23 Este 0 978.3 -0.7 30
2017-08-26 19:00:00 33.4 20 Este 32 Este 0 977.8 -1.6 26
2017-08-26 18:00:00 34.5 22 Este 34 Este 0 978 -1.4 25
2017-08-26 17:00:00 33.2 22 Este 30 Este 0 979 -1.1 29
2017-08-26 16:00:00 32.8 19 Este 34 Este 0 979.4 -0.8 31
2017-08-26 15:00:00 32.1 26 Este 38 Este 0 979.4 -1.4 33
2017-08-26 14:00:00 30.9 21 Este 36 Este 0 980.1 -0.8 38
2017-08-26 13:00:00 29.7 22 Este 32 Este 0 980.2 -0.5 43
2017-08-26 12:00:00 27.9 23 Este 37 Este 0 980.8 0.5 50
2017-08-26 11:00:00 26.4 24 Este 36 Sudeste 0 980.9 0.8 54
2017-08-26 10:00:00 24.5 23 Este 34 Este 0 980.7 0.9 60
2017-08-26 09:00:00 22.1 17 Sudeste 24 Sudeste 0 980.3 0.9 61
2017-08-26 08:00:00 21.1 15 Este 25 Este 0 980.1 1 59
2017-08-26 07:00:00 21 11 Sudeste 30 Este 0 979.8 0.7 60
2017-08-26 06:00:00 21.8 16 Este 26 Este 0 979.4 0.5 58
2017-08-26 05:00:00 22.6 21 Este 34 Este 0 979.1 -0.4 55
2017-08-26 04:00:00 23 27 Este 45 Este 0 979.1 -0.2 54
2017-08-26 03:00:00 23.7 32 Este 44 Este 0 978.9 0.1 53
2017-08-26 02:00:00 24.4 31 Este 45 Este 0 979.5 0.5 57
2017-08-26 01:00:00 24.6 31 Este 48 Este 0 979.3 1.1 66
2017-08-26 00:00:00 25.7 40 Este 51 Este 0 978.8 1.5 60
2017-08-25 23:00:00 27.2 37 Este 56 Este 0 979 1.9 50
2017-08-25 22:00:00 27.5 27 Este 56 Este 0 978.2 1.1 45
2017-08-25 21:00:00 29.4 34 Este 48 Este 0 977.3 0 39
2017-08-25 20:00:00 31.5 34 Este 47 Este 0 977.1 -0.7 34
2017-08-25 19:00:00 32.8 34 Este 48 Este 0 977.1 -1.4 33
2017-08-25 18:00:00 33.2 34 Este 49 Este 0 977.3 -2 32
2017-08-25 17:00:00 33.4 38 Este 47 Este 0 977.8 -2.4 28
2017-08-25 16:00:00 33.2 31 Este 43 Este 0 978.5 -2.5 28
2017-08-25 15:00:00 31.9 29 Este 43 Este 0 979.3 -2.1 31
2017-08-25 14:00:00 30.5 23 Este 41 Sudeste 0 980.2 -1.5 39
2017-08-25 13:00:00 28.6 22 Este 32 Este 0 981 -0.7 45
2017-08-25 12:00:00 27.7 9 Sudeste 24 Este 0 981.4 -0.2 47
2017-08-25 11:00:00 25.4 7 Sur 17 Sudeste 0 981.7 0.4 52
2017-08-25 10:00:00 22.8 13 Sudeste 16 Sudeste 0 981.7 0.5 57
2017-08-25 09:00:00 19.6 3 Sudoeste 5 Sudeste 0 981.6 0.6 81
2017-08-25 08:00:00 17.7 3 Sudeste 6 Sudeste 0 981.3 0.2 84
2017-08-25 07:00:00 18.1 4 Sudeste 7 Sur 0 981.2 0 86
2017-08-25 06:00:00 18.8 2 Sudeste 8 Sur 0 981 -0.3 84
2017-08-25 05:00:00 20.1 5 Sur 9 Sur 0 981.1 0.2 77
2017-08-25 04:00:00 20.9 5 Sudeste 14 Sudeste 0 981.2 1.1 72
2017-08-25 03:00:00 22.1 10 Sudeste 16 Este 0 981.3 1.9 53
2017-08-25 02:00:00 23.3 9 Sudeste 33 Este 0 980.9 2 45
2017-08-25 01:00:00 24.6 21 Sudeste 37 Sudeste 0 980.1 1.5 42
2017-08-25 00:00:00 25.3 20 Sudeste 43 Este 0 979.4 1.2 45
2017-08-24 23:00:00 27.1 31 Este 45 Este 0 978.9 1.1 39
2017-08-24 22:00:00 27.7 18 Este 31 Este 0 978.6 0.7 43
2017-08-24 21:00:00 29.3 25 Este 37 Este 0 978.2 0.1 39
2017-08-24 20:00:00 31.1 23 Este 39 Este 0 977.8 -0.5 34
2017-08-24 19:00:00 32.3 32 Este 46 Este 0 977.9 -1.3 29
2017-08-24 18:00:00 32.6 34 Este 51 Este 0 978.1 -1.8 27
2017-08-24 17:00:00 32.1 35 Este 47 Este 0 978.3 -2.3 35
2017-08-24 16:00:00 31.2 32 Este 42 Este 0 979.2 -2.2 39
2017-08-24 15:00:00 31.1 26 Este 37 Este 0 979.9 -1.8 42
2017-08-24 14:00:00 29.6 26 Este 41 Este 0 980.6 -1.5 44
2017-08-24 13:00:00 27.4 23 Este 33 Este 0 981.4 -0.6 51
2017-08-24 12:00:00 26.2 21 Este 30 Sudeste 0 981.7 -0.6 59
2017-08-24 11:00:00 23.8 21 Este 27 Este 0 982.1 0 67
2017-08-24 10:00:00 21.3 13 Este 22 Este 0 982 0 78
2017-08-24 09:00:00 19.5 7 Este 19 Este 0 982.3 0.3 83
2017-08-24 08:00:00 18.7 15 Este 20 Este 0 982.1 0.2 82
2017-08-24 07:00:00 19 6 Este 20 Este 0 982 0.2 82
2017-08-24 06:00:00 18.8 13 Este 15 Este 0 982 0.6 82
2017-08-24 05:00:00 18.9 4 Este 8 Norte 0 981.9 0.2 85
2017-08-24 04:00:00 19 4 Nordeste 9 Sudoeste 0 981.8 1.3 85
2017-08-24 03:00:00 19.3 6 Nordeste 22 Sudoeste 0 981.4 -3.1 85
2017-08-24 02:00:00 19.9 23 Sudoeste 55 Sudoeste 0.2 981.7 -0.7 80
2017-08-24 01:00:00 25.8 26 Noroeste 70 Noroeste 3.8 980.5 -0.8 52
2017-08-24 00:00:00 19.9 18 Sudoeste 49 Oeste 7.2 984.5 4.5 82
2017-08-23 23:00:00 23.4 -- -- -- -- 0 982.4 2 71
2017-08-23 22:00:00 23.8 9 Norte 24 Este 0 981.3 1 70
2017-08-23 21:00:00 25.3 17 Nordeste 35 Nordeste 0 980 0.9 61
2017-08-23 20:00:00 25.9 15 Norte 49 Sur 3.6 980.4 0.9 68
2017-08-23 19:00:00 32.7 13 Sudoeste 27 Sudoeste 0 980.3 0 32
2017-08-23 18:00:00 34.2 14 Este 30 Este 0 979.1 -1.6 30
2017-08-23 17:00:00 33.2 22 Este 32 Este 0 979.5 -1.8 33
2017-08-23 16:00:00 33.1 17 Este 33 Este 0 980.3 -1.8 33
2017-08-23 15:00:00 32 21 Este 32 Este 0 980.7 -2.1 36
2017-08-23 14:00:00 30.3 22 Este 30 Este 0 981.3 -1.6 40
2017-08-23 13:00:00 29.3 14 Este 26 Este 0 982.1 -0.7 44
2017-08-23 12:00:00 26.9 4 Oeste 11 Oeste 0 982.8 0.2 46
2017-08-23 11:00:00 24.9 5 Oeste 12 Noroeste 0 982.9 0.5 50
2017-08-23 10:00:00 23.3 9 Noroeste 13 Noroeste 0 982.8 0.9 55
2017-08-23 09:00:00 21.3 3 Noroeste 7 Oeste 0 982.6 0.9 62
2017-08-23 08:00:00 19.7 2 Noroeste 10 Noroeste 0 982.4 0.8 67
2017-08-23 07:00:00 19.8 7 Noroeste 17 Noroeste 0 981.9 0.2 67
2017-08-23 06:00:00 20.8 14 Noroeste 26 Noroeste 0 981.7 0.2 63
2017-08-23 05:00:00 21.3 19 Noroeste 28 Noroeste 0 981.6 0.4 62
2017-08-23 04:00:00 22 19 Noroeste 32 Noroeste 0 981.7 0.6 59
2017-08-23 03:00:00 23 21 Noroeste 36 Noroeste 0 981.5 1.2 55
2017-08-23 02:00:00 23.8 24 Noroeste 36 Noroeste 0 981.2 1.3 51
2017-08-23 01:00:00 25 26 Noroeste 37 Oeste 0 981.1 2.2 44
2017-08-23 00:00:00 26.1 22 Oeste 37 Oeste 0 980.3 2.4 48
2017-08-22 23:00:00 28.5 15 Noroeste 27 Norte 0 979.9 2.6 47
2017-08-22 22:00:00 31.3 15 Norte 24 Norte 0 978.9 1.3 39
2017-08-22 21:00:00 33.1 9 Noroeste 24 Noroeste 0 977.9 0 35
2017-08-22 20:00:00 35.6 12 Noroeste 22 Oeste 0 977.3 -1.2 28
2017-08-22 19:00:00 35 16 Oeste 21 Oeste 0 977.6 -1.6 30
2017-08-22 18:00:00 36.4 7 Nordeste 22 Este 0 977.9 -2 24
2017-08-22 17:00:00 36.7 12 Nordeste 28 Este 0 978.5 -2.1 24
2017-08-22 16:00:00 35.7 17 Este 30 Este 0 979.2 -2.2 27
2017-08-22 15:00:00 34.8 20 Este 32 Este 0 979.9 -2.1 29
2017-08-22 14:00:00 32.9 22 Este 32 Este 0 980.6 -1.8 33
2017-08-22 13:00:00 31.1 23 Este 33 Este 0 981.4 -1.1 38
2017-08-22 12:00:00 28.9 22 Este 30 Este 0 982 -0.5 47
2017-08-22 11:00:00 26.9 20 Este 28 Este 0 982.4 -0.2 53
2017-08-22 10:00:00 24.7 21 Este 28 Este 0 982.5 -0.1 61
2017-08-22 09:00:00 22.3 21 Este 29 Este 0 982.5 0.2 73
2017-08-22 08:00:00 21.2 15 Este 26 Sudeste 0 982.6 0.3 76
2017-08-22 07:00:00 21 14 Sudeste 28 Este 0 982.6 0.9 77
2017-08-22 06:00:00 21.9 21 Este 31 Sudeste 0 982.3 0.6 74
2017-08-22 05:00:00 22.6 18 Sudeste 31 Este 0 982.3 0.5 70
2017-08-22 04:00:00 22.8 22 Este 32 Este 0 981.7 0.1 66
2017-08-22 03:00:00 22.2 20 Este 30 Este 0 981.7 0.2 62
2017-08-22 02:00:00 21.9 16 Este 23 Este 0 981.8 0.5 50
2017-08-22 01:00:00 23 17 Este 30 Este 0 981.6 0.7 46
2017-08-22 00:00:00 24.7 25 Este 31 Este 0 981.5 1 40